Sierra Nevada Aquatic Research Lab (SNARL) Reserve, California Weather observations

Data are for 10 minute period ending at time listed.
 Day   Time   Solar   Ave.   Ave.  Ave.  Vector  Max.   Baro.   Total    
  of    of     Rad.   Air    Rel.  Wind   Wind   Wind  Press.  Precip.   
Year   Day            Temp.  Hum.  Speed  Dir.   Gust                    
2016   (PST)  Kw/m2    F      %     mph   deg.    mph    mb.     in.     
-------------------------------------------------------------------------
 124    8:50   0.74   54.4    37    6.9    88    12.9   787.2    0.00 
 124    9:00   0.71   54.3    37    8.9    91    15.4   787.2    0.00 
 124    9:10   0.80   54.7    36   11.0   106    16.7   787.2    0.00 
 124    9:20   0.81   55.8    34    8.5   104    18.9   787.1    0.00 
 124    9:30   0.82   56.7    32   15.2    86    25.0   787.0    0.00 
 124    9:40   0.85   56.5    32   16.5    85    23.6   786.9    0.00 
 124    9:50   0.88   57.4    31   16.2    90    23.6   786.8    0.00 
 124   10:00   0.88   57.4    31   17.6    93    24.9   786.8    0.00 
 124   10:10   0.91   57.5    31   17.2    88    22.5   786.7    0.00 
 124   10:20   0.92   57.8    31   17.1    92    25.0   786.7    0.00 
 124   10:30   0.96   58.3    31   17.0    90    23.5   786.6    0.00 
 124   10:40   0.92   58.8    30   16.9    88    26.1   786.6    0.00 
 124   10:50   0.94   59.1    29   16.0    98    25.6   786.5    0.00 
 124   11:00   0.91   59.4    28   15.2    88    21.9   786.4    0.00 
 124   11:10   0.94   60.0    28   15.5    85    25.8   786.2    0.00 
 124   11:20   0.95   59.7    28   15.9    86    26.4   786.1    0.00 
 124   11:30   0.99   60.3    28   16.1    90    23.7   786.0    0.00 
 124   11:40   0.98   60.5    28   16.5    91    24.3   785.9    0.00 
 124   11:50   0.95   61.3    27   16.0    93    23.4   785.8    0.00 
 124   12:00   0.99   61.2    27   16.6    92    25.1   785.8    0.00 
 124   12:10   0.92   61.0    26   15.6    88    27.2   785.7    0.00 
 124   12:20   0.90   61.4    26   15.8    84    25.1   785.6    0.00 
 124   12:30   0.78   61.3    26   16.8    89    25.9   785.5    0.00 
 124   12:40   0.95   61.6    26   14.3    83    24.5   785.4    0.00 
 124   12:50   0.77   61.4    26   14.8    84    25.8   785.3    0.00 
 124   13:00   0.96   62.3    25   14.9    80    23.3   785.3    0.00 
 124   13:10   0.99   62.6    24   17.4    84    23.5   785.3    0.00 
 124   13:20   0.93   62.6    23   15.1    84    26.0   785.2    0.00 
 124   13:30   0.71   62.4    23   16.8    85    26.1   785.1    0.00 
 124   13:40   0.54   61.1    24   15.9    82    23.4   785.0    0.00 
 124   13:50   0.54   61.2    24   14.5    86    21.9   785.0    0.00 
 124   14:00   0.71   62.4    24   13.4    87    23.5   784.9    0.00 
 124   14:10   0.78   62.7    23   12.6    86    22.4   784.9    0.00 
 124   14:20   0.70   63.4    23   15.4   100    22.6   784.7    0.00 
 124   14:30   0.46   62.4    23   14.9    97    22.9   784.7    0.00 
 124   14:40   0.41   61.4    24   14.3   101    23.7   784.6    0.00 
 124   14:50   0.41   61.4    24   13.0   100    20.7   784.6    0.00 
 124   15:00   0.39   61.3    24   13.6   105    19.5   784.5    0.00 
 124   15:10   0.41   61.0    24   14.3   100    23.1   784.4    0.00 
 124   15:20   0.42   61.3    23   13.8   107    23.4   784.4    0.00 
 124   15:30   0.44   61.8    24   11.1   111    19.6   784.3    0.00 
 124   15:40   0.31   61.4    23   15.6   110    22.3   784.3    0.00 
 124   15:50   0.25   60.4    24   13.3   110    19.1   784.2    0.00 
 124   16:00   0.20   60.0    24   13.3   111    18.5   784.2    0.00 
 124   16:10   0.17   59.4    24   13.6   111    19.0   784.2    0.00 
 124   16:20   0.18   59.1    24   13.8   118    20.2   784.2    0.00 
 124   16:30   0.16   59.0    24   13.5   109    19.6   784.1    0.00 
 124   16:40   0.14   58.9    24   12.1   115    18.0   784.1    0.00 
 124   16:50   0.17   58.9    24   13.8   113    18.4   784.0    0.00 
 124   17:00   0.14   58.8    24   14.8   120    20.8   783.9    0.00 
 124   17:10   0.10   58.2    25   13.0   112    18.9   783.9    0.00 
 124   17:20   0.10   57.9    25   14.2   114    20.6   784.0    0.00 
 124   17:30   0.09   57.7    25   15.4   120    24.3   784.0    0.00 
 124   17:40   0.07   57.4    25   15.6   113    23.9   784.0    0.00 
 124   17:50   0.07   57.3    25   16.5   115    22.4   784.0    0.00 
 124   18:00   0.07   57.0    26   13.2   118    18.3   783.9    0.00 
 124   18:10   0.05   56.4    27   12.6   108    17.4   783.9    0.00 
 124   18:20   0.04   55.7    28    9.8   114    12.7   784.0    0.00 
 124   18:30   0.04   55.3    29    8.4   117    13.1   784.0    0.00 
 124   18:40   0.01   54.6    30    9.1   119    14.0   784.0    0.00 
 124   18:50   0.00   53.9    30    7.5   117    12.3   784.1    0.00 
 124   19:00   0.00   53.0    31    7.3   120    10.3   784.2    0.00 
 124   19:10   0.00   53.0    32    7.8   118    10.7   784.3    0.00 
 124   19:20   0.00   53.2    31    8.0   121    12.4   784.4    0.00 
 124   19:30   0.00   52.6    32    6.9   120    10.2   784.4    0.00 
 124   19:40   0.00   51.3    35    1.8   358     6.7   784.5    0.00 
 124   19:50   0.00   49.3    41    3.6   245     6.4   784.6    0.00 
 124   20:00   0.00   49.0    47    6.1   246     8.6   784.8    0.00 
 124   20:10   0.00   48.8    47    2.7   231     6.1   784.9    0.00 
 124   20:20   0.00   47.9    49    2.8   283     5.6   785.1    0.00 
 124   20:30   0.00   46.5    51    1.2   322     4.1   785.2    0.00 
 124   20:40   0.00   45.9    52    4.0   273     6.3   785.1    0.00 
 124   20:50   0.00   46.0    53    3.3   274     5.3   785.2    0.00 
 124   21:00   0.00   45.8    53    2.7   244     5.1   785.3    0.00 
 124   21:10   0.00   45.7    54    2.1   238     4.4   785.3    0.00 
 124   21:20   0.00   44.4    56    3.0   241     5.1   785.4    0.00 
 124   21:30   0.00   43.1    58    1.2   228     3.1   785.5    0.00 
 124   21:40   0.00   42.0    61    1.5   199     6.5   785.4    0.00 
 124   21:50   0.00   43.0    59    2.4   217     5.0   785.3    0.00 
 124   22:00   0.00   42.8    60    2.4   244     5.9   785.3    0.00 
 124   22:10   0.00   42.8    60    1.7   251     3.7   785.3    0.00 
 124   22:20   0.00   42.3    61    1.8   276     4.0   785.3    0.00 
 124   22:30   0.00   41.4    63    3.6   233     5.6   785.3    0.00 
 124   22:40   0.00   42.0    62    1.9   319     3.2   785.2    0.00 
 124   22:50   0.00   41.2    63    3.5   238     4.5   785.2    0.00 
 124   23:00   0.00   40.6    65    3.8   224     5.3   785.1    0.00 
 124   23:10   0.00   40.8    64    3.4   233     5.2   785.2    0.00 
 124   23:20   0.00   41.0    64    2.8   264     3.9   785.2    0.00 
 124   23:30   0.00   40.4    65    3.0   234     5.0   785.2    0.00 
 124   23:40   0.00   39.7    66    3.0   264     4.2   785.1    0.00 
 124   23:50   0.00   40.8    64    3.3   322     4.7   785.1    0.00 
 125    0:00   0.00   40.1    65    1.7   303     5.0   785.1    0.00 
 125    0:10   0.00   38.9    68    0.3   150     1.4   785.0    0.00 
 125    0:20   0.00   37.7    72    1.6   302     2.6   785.0    0.00 
 125    0:30   0.00   37.2    71    1.8   303     4.3   784.8    0.00 
 125    0:40   0.00   35.8    74    1.6   296     4.5   784.8    0.00 
 125    0:50   0.00   35.5    76    1.4   293     3.5   784.7    0.00 
 125    1:00   0.00   35.9    74    1.2   259     2.3   784.6    0.00 
 125    1:10   0.00   36.0    74    1.7   256     2.5   784.6    0.00 
 125    1:20   0.00   35.7    75    0.6   262     1.7   784.5    0.00 
 125    1:30   0.00   34.9    75    0.4   217     1.5   784.5    0.00 
 125    1:40   0.00   34.3    78    0.4   239     1.0   784.4    0.00 
 125    1:50   0.00   35.3    75    0.5   268     1.2   784.3    0.00 
 125    2:00   0.00   33.7    79    0.5   345     1.5   784.3    0.00 
 125    2:10   0.00   34.3    80    0.2   243     1.1   784.2    0.00 
 125    2:20   0.00   34.7    78    0.7   288     2.1   784.1    0.00 
 125    2:30   0.00   34.6    79    1.7   277     2.5   784.1    0.00 
 125    2:40   0.00   34.4    79    0.6   279     2.1   784.2    0.00 
 125    2:50   0.00   34.5    79    1.9   232     3.5   784.1    0.00 
 125    3:00   0.00   34.5    79    2.7   320     4.3   784.0    0.00 
 125    3:10   0.00   34.4    80    0.9   327     3.9   783.9    0.00 
 125    3:20   0.00   35.1    79    1.5   295     3.1   783.8    0.00 
 125    3:30   0.00   34.9    78    1.4   268     3.5   783.8    0.00 
 125    3:40   0.00   33.5    82    1.9   252     3.0   783.8    0.00 
 125    3:50   0.00   34.4    80    1.5   233     2.4   783.7    0.00 
 125    4:00   0.00   33.2    82    2.8   262     4.9   783.7    0.00 
 125    4:10   0.00   35.1    80    3.3   327     5.6   783.7    0.00 
 125    4:20   0.00   36.0    77    2.3   305     5.5   783.6    0.00 
 125    4:30   0.00   36.0    78    2.4   311     3.8   783.7    0.00 
 125    4:40   0.00   35.5    78    3.1   273     4.1   783.7    0.00 
 125    4:50   0.00   34.4    81    1.4   241     2.8   783.7    0.00 
 125    5:00   0.00   34.2    82    0.7   145     1.8   783.6    0.00 
 125    5:10   0.00   33.9    83    0.2   120     1.4   783.7    0.00 
 125    5:20   0.00   34.5    82    1.0   178     2.2   783.8    0.00 
 125    5:30   0.01   34.8    82    1.0   319     2.2   783.9    0.00 
 125    5:40   0.03   35.3    81    1.6   292     2.6   783.9    0.00 
 125    5:50   0.04   35.9    82    1.6   289     3.5   783.9    0.00 
 125    6:00   0.06   37.0    79    1.6   334     3.5   783.9    0.00 
 125    6:10   0.07   38.3    78    1.1   327     3.4   783.9    0.00 
 125    6:20   0.07   39.5    75    0.6   149     2.3   783.8    0.00 
 125    6:30   0.09   40.5    71    1.1    72     3.4   783.8    0.00 
 125    6:40   0.09   41.3    70    1.1   318     2.1   783.8    0.00 
 125    6:50   0.10   41.7    70    0.9   260     2.1   783.8    0.00 
 125    7:00   0.11   42.6    68    0.9    85     2.0   783.9    0.00 
 125    7:10   0.15   43.4    66    0.3   209     1.4   783.8    0.00 
 125    7:20   0.17   45.0    64    1.3   249     2.6   783.7    0.00 
 125    7:30   0.24   46.2    61    0.9   253     2.4   783.7    0.00 
 125    7:40   0.27   49.2    49    2.1   303     5.3   783.6    0.00 
 125    7:50   0.23   49.8    43    3.8   324     6.1   783.6    0.00 
 125    8:00   0.39   50.5    42    3.6   322     5.7   783.6    0.00 
 125    8:10   0.39   51.9    42    2.8     1     5.3   783.6    0.00 
 125    8:20   0.61   53.6    41    1.4   360     5.6   783.5    0.00 
 125    8:30   0.56   55.4    37    1.8     9     4.2   783.4    0.00 
 125    8:40   0.56   55.7    36    2.2    56     5.6   783.3    0.00 

Return to SNARL Reserve graphs page.


Western Regional Climate Center,wrcc@dri.edu